sensor_id;sensor_type;location;lat;lon;timestamp;pressure;altitude;pressure_sealevel;temperature;humidity
75447;BME280;64024;55.820;37.574;2023-08-21T00:00:12;98962.13;;;24.17;45.61
75447;BME280;64024;55.820;37.574;2023-08-21T00:02:39;98966.75;;;24.16;45.90
75447;BME280;64024;55.820;37.574;2023-08-21T00:05:05;98959.72;;;24.15;45.72
75447;BME280;64024;55.820;37.574;2023-08-21T00:07:34;98976.34;;;24.14;45.66
75447;BME280;64024;55.820;37.574;2023-08-21T00:09:59;98972.78;;;24.13;45.68
75447;BME280;64024;55.820;37.574;2023-08-21T00:12:25;98978.84;;;24.10;45.54
75447;BME280;64024;55.820;37.574;2023-08-21T00:14:51;98967.19;;;24.10;45.59
75447;BME280;64024;55.820;37.574;2023-08-21T00:17:17;98974.22;;;24.11;45.98
75447;BME280;64024;55.820;37.574;2023-08-21T00:19:43;98961.75;;;24.10;45.66
75447;BME280;64024;55.820;37.574;2023-08-21T00:22:08;98969.59;;;24.11;46.05
75447;BME280;64024;55.820;37.574;2023-08-21T00:24:34;98956.81;;;24.12;45.76
75447;BME280;64024;55.820;37.574;2023-08-21T00:27:00;98983.97;;;24.12;45.88
75447;BME280;64024;55.820;37.574;2023-08-21T00:29:25;98963.84;;;24.13;45.93
75447;BME280;64024;55.820;37.574;2023-08-21T00:31:51;98969.00;;;24.14;45.65
75447;BME280;64024;55.820;37.574;2023-08-21T00:34:17;98967.06;;;24.15;45.54
75447;BME280;64024;55.820;37.574;2023-08-21T00:36:42;98953.50;;;24.15;45.52
75447;BME280;64024;55.820;37.574;2023-08-21T00:39:08;98963.56;;;24.14;45.54
75447;BME280;64024;55.820;37.574;2023-08-21T00:41:34;98965.47;;;24.14;45.47
75447;BME280;64024;55.820;37.574;2023-08-21T00:43:59;98967.34;;;24.13;45.69
75447;BME280;64024;55.820;37.574;2023-08-21T00:46:25;98964.97;;;24.12;45.38
75447;BME280;64024;55.820;37.574;2023-08-21T00:48:51;98966.88;;;24.11;45.61
75447;BME280;64024;55.820;37.574;2023-08-21T00:51:17;98968.28;;;24.09;45.35
75447;BME280;64024;55.820;37.574;2023-08-21T00:53:44;98966.66;;;24.08;45.58
75447;BME280;64024;55.820;37.574;2023-08-21T00:56:10;98972.09;;;24.08;45.55
75447;BME280;64024;55.820;37.574;2023-08-21T00:58:36;98964.56;;;24.04;45.30
75447;BME280;64024;55.820;37.574;2023-08-21T01:01:01;98966.78;;;24.02;45.65
75447;BME280;64024;55.820;37.574;2023-08-21T01:03:30;98972.50;;;24.01;45.57
75447;BME280;64024;55.820;37.574;2023-08-21T01:05:56;98977.44;;;23.99;45.39
75447;BME280;64024;55.820;37.574;2023-08-21T01:16:27;98971.91;;;23.90;45.56
75447;BME280;64024;55.820;37.574;2023-08-21T01:18:54;98976.03;;;23.88;45.63
75447;BME280;64024;55.820;37.574;2023-08-21T01:21:22;98979.06;;;23.86;45.50
75447;BME280;64024;55.820;37.574;2023-08-21T01:23:48;98977.75;;;23.84;45.53
75447;BME280;64024;55.820;37.574;2023-08-21T01:26:14;98973.44;;;23.83;45.86
75447;BME280;64024;55.820;37.574;2023-08-21T01:28:40;98991.94;;;23.80;46.03
75447;BME280;64024;55.820;37.574;2023-08-21T01:31:32;98980.25;;;23.80;45.89
75447;BME280;64024;55.820;37.574;2023-08-21T01:34:04;98975.94;;;23.79;46.08
75447;BME280;64024;55.820;37.574;2023-08-21T01:36:33;98982.78;;;23.76;45.89
75447;BME280;64024;55.820;37.574;2023-08-21T01:39:02;98968.69;;;23.74;45.99
75447;BME280;64024;55.820;37.574;2023-08-21T01:41:28;98971.22;;;23.71;45.95
75447;BME280;64024;55.820;37.574;2023-08-21T01:43:54;98975.03;;;23.70;45.64
75447;BME280;64024;55.820;37.574;2023-08-21T01:46:20;98969.09;;;23.68;45.66
75447;BME280;64024;55.820;37.574;2023-08-21T01:48:46;98984.06;;;23.65;45.60
75447;BME280;64024;55.820;37.574;2023-08-21T01:51:12;98979.72;;;23.64;46.05
75447;BME280;64024;55.820;37.574;2023-08-21T01:53:37;98973.78;;;23.62;45.90
75447;BME280;64024;55.820;37.574;2023-08-21T01:56:03;98987.66;;;23.61;46.09
75447;BME280;64024;55.820;37.574;2023-08-21T01:58:29;98993.09;;;23.61;45.85
75447;BME280;64024;55.820;37.574;2023-08-21T02:00:54;98997.19;;;23.58;46.04
75447;BME280;64024;55.820;37.574;2023-08-21T02:03:20;98997.50;;;23.56;45.98
75447;BME280;64024;55.820;37.574;2023-08-21T02:05:46;98998.59;;;23.55;45.65
75447;BME280;64024;55.820;37.574;2023-08-21T02:08:14;98996.19;;;23.54;45.73
75447;BME280;64024;55.820;37.574;2023-08-21T02:10:55;98993.47;;;23.54;45.97
75447;BME280;64024;55.820;37.574;2023-08-21T02:13:21;98997.59;;;23.51;45.68
75447;BME280;64024;55.820;37.574;2023-08-21T02:15:46;98995.47;;;23.48;45.93
75447;BME280;64024;55.820;37.574;2023-08-21T02:18:12;98999.31;;;23.47;46.13
75447;BME280;64024;55.820;37.574;2023-08-21T02:20:38;98988.72;;;23.46;45.96
75447;BME280;64024;55.820;37.574;2023-08-21T02:23:04;98996.06;;;23.45;45.92
75447;BME280;64024;55.820;37.574;2023-08-21T02:25:31;98992.88;;;23.43;46.35
75447;BME280;64024;55.820;37.574;2023-08-21T02:27:57;98989.47;;;23.51;45.92
75447;BME280;64024;55.820;37.574;2023-08-21T02:30:23;98995.47;;;23.48;45.99
75447;BME280;64024;55.820;37.574;2023-08-21T02:32:52;98987.94;;;23.45;45.99
75447;BME280;64024;55.820;37.574;2023-08-21T02:35:18;98998.28;;;23.43;46.28
75447;BME280;64024;55.820;37.574;2023-08-21T02:37:44;98986.91;;;23.41;46.10
75447;BME280;64024;55.820;37.574;2023-08-21T02:40:09;98982.59;;;23.40;46.09
75447;BME280;64024;55.820;37.574;2023-08-21T02:42:36;98979.38;;;23.38;45.97
75447;BME280;64024;55.820;37.574;2023-08-21T02:45:02;98984.78;;;23.38;46.31
75447;BME280;64024;55.820;37.574;2023-08-21T02:47:42;98986.91;;;23.41;46.21
75447;BME280;64024;55.820;37.574;2023-08-21T02:50:09;98983.41;;;23.41;46.29
75447;BME280;64024;55.820;37.574;2023-08-21T02:52:35;98994.75;;;23.43;46.36
75447;BME280;64024;55.820;37.574;2023-08-21T02:55:02;98996.38;;;23.44;46.39
75447;BME280;64024;55.820;37.574;2023-08-21T02:57:28;98990.66;;;23.45;46.30
75447;BME280;64024;55.820;37.574;2023-08-21T02:59:55;99000.09;;;23.48;46.50
75447;BME280;64024;55.820;37.574;2023-08-21T03:02:21;98997.09;;;23.49;46.27
75447;BME280;64024;55.820;37.574;2023-08-21T03:04:47;98998.69;;;23.50;46.69
75447;BME280;64024;55.820;37.574;2023-08-21T03:07:13;99000.81;;;23.53;46.72
75447;BME280;64024;55.820;37.574;2023-08-21T03:09:40;98996.97;;;23.54;46.60
75447;BME280;64024;55.820;37.574;2023-08-21T03:12:07;99003.72;;;23.57;46.87
75447;BME280;64024;55.820;37.574;2023-08-21T03:14:33;98997.06;;;23.68;46.60
75447;BME280;64024;55.820;37.574;2023-08-21T03:17:02;99008.97;;;23.67;46.84
75447;BME280;64024;55.820;37.574;2023-08-21T03:19:29;99000.84;;;23.67;46.75
75447;BME280;64024;55.820;37.574;2023-08-21T03:21:55;99006.00;;;23.69;46.68
75447;BME280;64024;55.820;37.574;2023-08-21T03:24:21;99001.38;;;23.69;46.83
75447;BME280;64024;55.820;37.574;2023-08-21T03:26:47;99004.56;;;23.71;46.58
75447;BME280;64024;55.820;37.574;2023-08-21T03:29:13;99003.19;;;23.74;46.80
75447;BME280;64024;55.820;37.574;2023-08-21T03:31:39;98998.22;;;23.76;46.91
75447;BME280;64024;55.820;37.574;2023-08-21T03:34:08;99012.00;;;23.79;47.00
75447;BME280;64024;55.820;37.574;2023-08-21T03:36:35;98998.97;;;23.81;46.87
75447;BME280;64024;55.820;37.574;2023-08-21T03:39:03;99015.44;;;23.85;46.33
75447;BME280;64024;55.820;37.574;2023-08-21T03:41:32;99012.44;;;23.87;46.30
75447;BME280;64024;55.820;37.574;2023-08-21T03:43:58;99004.78;;;23.89;46.14
75447;BME280;64024;55.820;37.574;2023-08-21T03:46:28;99008.81;;;23.91;46.16
75447;BME280;64024;55.820;37.574;2023-08-21T03:48:54;98996.56;;;23.94;46.37
75447;BME280;64024;55.820;37.574;2023-08-21T03:51:20;98999.47;;;23.97;45.93
75447;BME280;64024;55.820;37.574;2023-08-21T03:53:47;99003.47;;;24.00;46.03
75447;BME280;64024;55.820;37.574;2023-08-21T03:56:13;99002.06;;;24.02;46.42
75447;BME280;64024;55.820;37.574;2023-08-21T03:58:39;98999.84;;;24.04;46.29
75447;BME280;64024;55.820;37.574;2023-08-21T04:01:05;99000.06;;;24.08;46.20
75447;BME280;64024;55.820;37.574;2023-08-21T04:03:33;99008.41;;;24.12;46.10
75447;BME280;64024;55.820;37.574;2023-08-21T04:05:59;99008.09;;;24.13;45.98
75447;BME280;64024;55.820;37.574;2023-08-21T04:08:28;99004.78;;;24.16;46.13
75447;BME280;64024;55.820;37.574;2023-08-21T04:10:54;99009.59;;;24.19;45.94
75447;BME280;64024;55.820;37.574;2023-08-21T04:13:24;99012.53;;;24.23;46.03
75447;BME280;64024;55.820;37.574;2023-08-21T04:15:54;99013.81;;;24.25;45.67
75447;BME280;64024;55.820;37.574;2023-08-21T04:18:21;99024.88;;;24.29;45.71
75447;BME280;64024;55.820;37.574;2023-08-21T04:20:50;99015.59;;;24.30;45.45
75447;BME280;64024;55.820;37.574;2023-08-21T04:23:16;99025.88;;;24.33;45.16
75447;BME280;64024;55.820;37.574;2023-08-21T04:25:42;99012.00;;;24.35;45.29
75447;BME280;64024;55.820;37.574;2023-08-21T04:28:15;99017.94;;;24.37;44.90
75447;BME280;64024;55.820;37.574;2023-08-21T04:30:41;99011.41;;;24.38;45.06
75447;BME280;64024;55.820;37.574;2023-08-21T04:33:09;99007.28;;;24.40;44.79
75447;BME280;64024;55.820;37.574;2023-08-21T04:35:38;99014.03;;;24.43;44.59
75447;BME280;64024;55.820;37.574;2023-08-21T04:38:05;99006.38;;;24.45;44.83
75447;BME280;64024;55.820;37.574;2023-08-21T04:40:36;99020.94;;;24.49;44.48
75447;BME280;64024;55.820;37.574;2023-08-21T04:43:04;99021.44;;;24.51;44.10
75447;BME280;64024;55.820;37.574;2023-08-21T04:45:31;99014.91;;;24.52;44.21
75447;BME280;64024;55.820;37.574;2023-08-21T04:47:58;99012.69;;;24.54;43.99
75447;BME280;64024;55.820;37.574;2023-08-21T04:50:25;99031.41;;;24.55;43.76
75447;BME280;64024;55.820;37.574;2023-08-21T04:52:51;99017.50;;;24.57;43.42
75447;BME280;64024;55.820;37.574;2023-08-21T04:55:18;99018.81;;;24.60;43.43
75447;BME280;64024;55.820;37.574;2023-08-21T04:57:45;99020.44;;;24.61;43.48
75447;BME280;64024;55.820;37.574;2023-08-21T05:00:12;99017.41;;;24.62;43.23
75447;BME280;64024;55.820;37.574;2023-08-21T05:02:39;99012.16;;;24.66;43.08
75447;BME280;64024;55.820;37.574;2023-08-21T05:05:06;99011.84;;;24.67;43.01
75447;BME280;64024;55.820;37.574;2023-08-21T05:07:34;99011.56;;;24.69;43.08
75447;BME280;64024;55.820;37.574;2023-08-21T05:10:01;99015.56;;;24.71;42.62
75447;BME280;64024;55.820;37.574;2023-08-21T05:12:27;99014.16;;;24.74;42.90
75447;BME280;64024;55.820;37.574;2023-08-21T05:14:54;99024.41;;;24.77;42.83
75447;BME280;64024;55.820;37.574;2023-08-21T05:17:21;99023.28;;;24.78;42.83
75447;BME280;64024;55.820;37.574;2023-08-21T05:19:47;99021.09;;;24.80;42.76
75447;BME280;64024;55.820;37.574;2023-08-21T05:22:17;99020.78;;;24.82;42.70
75447;BME280;64024;55.820;37.574;2023-08-21T05:24:44;99015.81;;;24.84;42.62
75447;BME280;64024;55.820;37.574;2023-08-21T05:27:10;99019.03;;;24.86;42.72
75447;BME280;64024;55.820;37.574;2023-08-21T05:29:37;99012.16;;;24.88;42.65
75447;BME280;64024;55.820;37.574;2023-08-21T05:32:04;99011.88;;;24.90;42.36
75447;BME280;64024;55.820;37.574;2023-08-21T05:34:32;99027.59;;;24.93;42.55
75447;BME280;64024;55.820;37.574;2023-08-21T05:36:58;99013.66;;;24.94;42.42
75447;BME280;64024;55.820;37.574;2023-08-21T05:39:25;99026.94;;;24.96;42.54
75447;BME280;64024;55.820;37.574;2023-08-21T05:41:52;99017.38;;;24.98;42.32
75447;BME280;64024;55.820;37.574;2023-08-21T05:44:18;99012.41;;;25.00;42.35
75447;BME280;64024;55.820;37.574;2023-08-21T05:46:48;99015.66;;;25.02;42.27
75447;BME280;64024;55.820;37.574;2023-08-21T05:49:14;99021.28;;;25.06;42.23
75447;BME280;64024;55.820;37.574;2023-08-21T05:51:41;99003.84;;;25.07;42.30
75447;BME280;64024;55.820;37.574;2023-08-21T05:54:08;99003.25;;;25.10;42.38
75447;BME280;64024;55.820;37.574;2023-08-21T05:56:34;99009.19;;;25.12;42.52
75447;BME280;64024;55.820;37.574;2023-08-21T05:59:03;99003.13;;;25.15;42.51
75447;BME280;64024;55.820;37.574;2023-08-21T06:01:29;99000.88;;;25.17;42.45
75447;BME280;64024;55.820;37.574;2023-08-21T06:03:57;99011.47;;;25.19;42.44
75447;BME280;64024;55.820;37.574;2023-08-21T06:06:25;99010.88;;;25.22;42.36
75447;BME280;64024;55.820;37.574;2023-08-21T06:08:51;99004.31;;;25.23;42.22
75447;BME280;64024;55.820;37.574;2023-08-21T06:11:18;99019.19;;;25.25;42.22
75447;BME280;64024;55.820;37.574;2023-08-21T06:13:44;99001.78;;;25.26;41.96
75447;BME280;64024;55.820;37.574;2023-08-21T06:16:12;98988.66;;;25.28;42.03
75447;BME280;64024;55.820;37.574;2023-08-21T06:18:39;99006.28;;;25.31;41.94
75447;BME280;64024;55.820;37.574;2023-08-21T06:21:04;98985.31;;;25.32;41.86
75447;BME280;64024;55.820;37.574;2023-08-21T06:23:30;99005.97;;;25.33;41.63
75447;BME280;64024;55.820;37.574;2023-08-21T06:25:58;98978.47;;;25.34;41.44
75447;BME280;64024;55.820;37.574;2023-08-21T06:28:24;99010.78;;;25.36;41.28
75447;BME280;64024;55.820;37.574;2023-08-21T06:30:57;99007.44;;;25.39;41.12
75447;BME280;64024;55.820;37.574;2023-08-21T06:33:30;98993.53;;;25.40;41.07
75447;BME280;64024;55.820;37.574;2023-08-21T06:36:03;98996.25;;;25.40;40.98
75447;BME280;64024;55.820;37.574;2023-08-21T06:38:31;98995.13;;;25.41;40.80
75447;BME280;64024;55.820;37.574;2023-08-21T06:40:58;98988.59;;;25.42;41.04
75447;BME280;64024;55.820;37.574;2023-08-21T06:43:25;98983.16;;;25.42;40.67
75447;BME280;64024;55.820;37.574;2023-08-21T06:45:51;98988.25;;;25.44;40.83
75447;BME280;64024;55.820;37.574;2023-08-21T06:48:17;98990.19;;;25.43;40.46
75447;BME280;64024;55.820;37.574;2023-08-21T06:50:44;99005.06;;;25.46;40.61
75447;BME280;64024;55.820;37.574;2023-08-21T06:53:11;99014.06;;;25.46;40.46
75447;BME280;64024;55.820;37.574;2023-08-21T06:55:37;99018.38;;;25.47;40.51
75447;BME280;64024;55.820;37.574;2023-08-21T06:58:03;99019.19;;;25.48;40.09
75447;BME280;64024;55.820;37.574;2023-08-21T07:00:29;99015.66;;;25.47;39.92
75447;BME280;64024;55.820;37.574;2023-08-21T07:02:56;99023.50;;;25.49;39.71
75447;BME280;64024;55.820;37.574;2023-08-21T07:05:24;99013.72;;;25.48;39.59
75447;BME280;64024;55.820;37.574;2023-08-21T07:07:51;99012.63;;;25.49;39.57
75447;BME280;64024;55.820;37.574;2023-08-21T07:10:26;99019.19;;;25.48;39.60
75447;BME280;64024;55.820;37.574;2023-08-21T07:12:54;99011.81;;;25.48;39.50
75447;BME280;64024;55.820;37.574;2023-08-21T07:15:21;99019.19;;;25.48;39.36
75447;BME280;64024;55.820;37.574;2023-08-21T07:17:47;99023.03;;;25.47;39.38
75447;BME280;64024;55.820;37.574;2023-08-21T07:20:14;99011.06;;;25.57;39.37
75447;BME280;64024;55.820;37.574;2023-08-21T07:22:43;99019.34;;;25.51;39.35
75447;BME280;64024;55.820;37.574;2023-08-21T07:25:09;99025.09;;;25.50;39.19
75447;BME280;64024;55.820;37.574;2023-08-21T07:27:36;99029.25;;;25.47;39.27
75447;BME280;64024;55.820;37.574;2023-08-21T07:30:02;99023.81;;;25.47;39.35
75447;BME280;64024;55.820;37.574;2023-08-21T07:32:29;99014.84;;;25.47;39.33
75447;BME280;64024;55.820;37.574;2023-08-21T07:34:57;99022.22;;;25.46;39.38
75447;BME280;64024;55.820;37.574;2023-08-21T07:37:24;99016.47;;;25.48;39.36
75447;BME280;64024;55.820;37.574;2023-08-21T07:39:52;99012.94;;;25.47;39.50
75447;BME280;64024;55.820;37.574;2023-08-21T07:42:19;99012.63;;;25.49;39.54
75447;BME280;64024;55.820;37.574;2023-08-21T07:44:46;99011.50;;;25.50;39.20
75447;BME280;64024;55.820;37.574;2023-08-21T07:47:12;99012.28;;;25.50;39.47
75447;BME280;64024;55.820;37.574;2023-08-21T07:49:38;99006.56;;;25.52;39.54
75447;BME280;64024;55.820;37.574;2023-08-21T07:52:04;99015.50;;;25.52;39.38
75447;BME280;64024;55.820;37.574;2023-08-21T07:54:30;99017.91;;;25.54;39.43
75447;BME280;64024;55.820;37.574;2023-08-21T07:56:57;99003.22;;;25.55;39.47
75447;BME280;64024;55.820;37.574;2023-08-21T07:59:24;99012.97;;;25.56;39.39
75447;BME280;64024;55.820;37.574;2023-08-21T08:01:53;99007.22;;;25.58;39.24
75447;BME280;64024;55.820;37.574;2023-08-21T08:04:18;99002.56;;;25.58;39.25
75447;BME280;64024;55.820;37.574;2023-08-21T08:06:45;99002.28;;;25.60;39.23
75447;BME280;64024;55.820;37.574;2023-08-21T08:09:11;99001.16;;;25.61;39.48
75447;BME280;64024;55.820;37.574;2023-08-21T08:11:39;98990.75;;;25.63;39.43
75447;BME280;64024;55.820;37.574;2023-08-21T08:14:05;98999.41;;;25.65;39.47
75447;BME280;64024;55.820;37.574;2023-08-21T08:16:30;99003.72;;;25.66;39.42
75447;BME280;64024;55.820;37.574;2023-08-21T08:18:56;99003.09;;;25.69;39.30
75447;BME280;64024;55.820;37.574;2023-08-21T08:21:23;98998.13;;;25.71;39.20
75447;BME280;64024;55.820;37.574;2023-08-21T08:23:49;98995.94;;;25.73;39.05
75447;BME280;64024;55.820;37.574;2023-08-21T08:26:15;98998.31;;;25.74;39.01
75447;BME280;64024;55.820;37.574;2023-08-21T08:28:42;98995.03;;;25.86;38.93
75447;BME280;64024;55.820;37.574;2023-08-21T08:31:14;98992.66;;;25.85;39.26
75447;BME280;64024;55.820;37.574;2023-08-21T08:33:40;98995.66;;;25.83;39.08
75447;BME280;64024;55.820;37.574;2023-08-21T08:36:06;98991.84;;;25.84;39.13
75447;BME280;64024;55.820;37.574;2023-08-21T08:38:32;98981.75;;;25.85;39.01
75447;BME280;64024;55.820;37.574;2023-08-21T08:41:01;98986.88;;;25.86;38.79
75447;BME280;64024;55.820;37.574;2023-08-21T08:43:27;98980.28;;;25.87;39.00
75447;BME280;64024;55.820;37.574;2023-08-21T08:45:57;98986.25;;;25.89;38.57
75447;BME280;64024;55.820;37.574;2023-08-21T08:48:23;98986.72;;;25.91;39.18
75447;BME280;64024;55.820;37.574;2023-08-21T08:50:51;98980.97;;;25.93;38.80
75447;BME280;64024;55.820;37.574;2023-08-21T08:53:18;98972.47;;;25.94;38.82
75447;BME280;64024;55.820;37.574;2023-08-21T08:55:45;98968.34;;;26.06;38.77
75447;BME280;64024;55.820;37.574;2023-08-21T08:58:11;98976.03;;;26.03;38.86
75447;BME280;64024;55.820;37.574;2023-08-21T09:00:37;98971.69;;;26.02;38.51
75447;BME280;64024;55.820;37.574;2023-08-21T09:03:03;98963.53;;;26.02;38.49
75447;BME280;64024;55.820;37.574;2023-08-21T09:05:31;98965.13;;;26.03;38.29
75447;BME280;64024;55.820;37.574;2023-08-21T09:08:11;98962.56;;;26.07;38.34
75447;BME280;64024;55.820;37.574;2023-08-21T09:10:38;98955.22;;;26.08;38.50
75447;BME280;64024;55.820;37.574;2023-08-21T09:13:19;98960.03;;;26.11;38.52
75447;BME280;64024;55.820;37.574;2023-08-21T09:15:53;98947.22;;;26.11;38.43
75447;BME280;64024;55.820;37.574;2023-08-21T09:18:22;98944.19;;;26.13;38.87
75447;BME280;64024;55.820;37.574;2023-08-21T09:20:48;98954.75;;;26.14;38.75
75447;BME280;64024;55.820;37.574;2023-08-21T09:23:15;98959.06;;;26.15;39.06
75447;BME280;64024;55.820;37.574;2023-08-21T09:25:47;98950.56;;;26.17;38.91
75447;BME280;64024;55.820;37.574;2023-08-21T09:28:15;98956.53;;;26.19;38.76
75447;BME280;64024;55.820;37.574;2023-08-21T09:30:51;98949.94;;;26.20;38.12
75447;BME280;64024;55.820;37.574;2023-08-21T09:33:21;98953.97;;;26.22;38.30
75447;BME280;64024;55.820;37.574;2023-08-21T09:35:48;98971.56;;;26.25;38.35
75447;BME280;64024;55.820;37.574;2023-08-21T09:38:14;98964.22;;;26.25;38.07
75447;BME280;64024;55.820;37.574;2023-08-21T09:40:42;98965.81;;;26.26;37.59
75447;BME280;64024;55.820;37.574;2023-08-21T09:43:09;98959.25;;;26.27;37.24
75447;BME280;64024;55.820;37.574;2023-08-21T09:45:37;98950.75;;;26.29;37.10
75447;BME280;64024;55.820;37.574;2023-08-21T09:48:03;98944.19;;;26.30;36.75
75447;BME280;64024;55.820;37.574;2023-08-21T09:50:30;98944.19;;;26.30;36.96
75447;BME280;64024;55.820;37.574;2023-08-21T09:52:56;98944.66;;;26.32;37.05
75447;BME280;64024;55.820;37.574;2023-08-21T09:55:23;98948.69;;;26.35;37.23
75447;BME280;64024;55.820;37.574;2023-08-21T09:57:53;98947.22;;;26.37;37.63
75447;BME280;64024;55.820;37.574;2023-08-21T10:00:28;98945.47;;;26.41;37.67
75447;BME280;64024;55.820;37.574;2023-08-21T10:03:00;98950.31;;;26.44;37.34
75447;BME280;64024;55.820;37.574;2023-08-21T10:05:27;98939.91;;;26.46;37.23
75447;BME280;64024;55.820;37.574;2023-08-21T10:07:55;98939.59;;;26.48;37.48
75447;BME280;64024;55.820;37.574;2023-08-21T10:10:21;98939.25;;;26.49;37.18
75447;BME280;64024;55.820;37.574;2023-08-21T10:12:48;98944.06;;;26.52;36.94
75447;BME280;64024;55.820;37.574;2023-08-21T10:15:15;98935.56;;;26.54;36.91
75447;BME280;64024;55.820;37.574;2023-08-21T10:17:43;98939.91;;;26.55;36.71
75447;BME280;64024;55.820;37.574;2023-08-21T10:20:09;98933.34;;;26.56;36.76
75447;BME280;64024;55.820;37.574;2023-08-21T10:22:45;98929.97;;;26.59;36.41
75447;BME280;64024;55.820;37.574;2023-08-21T10:25:16;98927.56;;;26.58;36.17
75447;BME280;64024;55.820;37.574;2023-08-21T10:27:43;98931.41;;;26.57;36.34
75447;BME280;64024;55.820;37.574;2023-08-21T10:30:19;98928.69;;;26.57;35.69
75447;BME280;64024;55.820;37.574;2023-08-21T10:32:47;98927.09;;;26.56;36.07
75447;BME280;64024;55.820;37.574;2023-08-21T10:35:16;98929.00;;;26.55;35.64
75447;BME280;64024;55.820;37.574;2023-08-21T10:38:13;98924.03;;;26.57;35.52
75447;BME280;64024;55.820;37.574;2023-08-21T10:40:40;98912.31;;;26.65;35.79
75447;BME280;64024;55.820;37.574;2023-08-21T10:46:06;98916.34;;;26.59;36.31
75447;BME280;64024;55.820;37.574;2023-08-21T10:48:32;98908.47;;;26.58;36.25
75447;BME280;64024;55.820;37.574;2023-08-21T10:51:02;98899.50;;;26.57;35.96
75447;BME280;64024;55.820;37.574;2023-08-21T10:53:30;98903.03;;;26.58;36.52
75447;BME280;64024;55.820;37.574;2023-08-21T10:55:56;98894.84;;;26.58;36.89
75447;BME280;64024;55.820;37.574;2023-08-21T10:58:23;98903.81;;;26.58;37.59
75447;BME280;64024;55.820;37.574;2023-08-21T11:01:00;98900.47;;;26.61;37.65
75447;BME280;64024;55.820;37.574;2023-08-21T11:03:27;98893.41;;;26.60;37.63
75447;BME280;64024;55.820;37.574;2023-08-21T11:06:06;98884.91;;;26.62;37.90
75447;BME280;64024;55.820;37.574;2023-08-21T11:08:33;98891.16;;;26.62;37.68
75447;BME280;64024;55.820;37.574;2023-08-21T11:11:02;98885.38;;;26.72;37.98
75447;BME280;64024;55.820;37.574;2023-08-21T11:13:30;98892.59;;;26.68;37.40
75447;BME280;64024;55.820;37.574;2023-08-21T11:16:00;98889.38;;;26.66;37.22
75447;BME280;64024;55.820;37.574;2023-08-21T11:18:34;98888.59;;;26.66;36.45
75447;BME280;64024;55.820;37.574;2023-08-21T11:21:07;98891.66;;;26.64;36.53
75447;BME280;64024;55.820;37.574;2023-08-21T11:23:39;98889.72;;;26.65;36.37
75447;BME280;64024;55.820;37.574;2023-08-21T11:26:06;98887.31;;;26.63;36.24
75447;BME280;64024;55.820;37.574;2023-08-21T11:28:38;98890.03;;;26.63;35.85
75447;BME280;64024;55.820;37.574;2023-08-21T11:31:05;98894.69;;;26.63;35.54
75447;BME280;64024;55.820;37.574;2023-08-21T11:33:32;98884.91;;;26.62;35.74
75447;BME280;64024;55.820;37.574;2023-08-21T11:35:59;98886.84;;;26.61;35.16
75447;BME280;64024;55.820;37.574;2023-08-21T11:38:26;98883.31;;;26.61;35.13
75447;BME280;64024;55.820;37.574;2023-08-21T11:43:18;98878.97;;;26.60;35.19
75447;BME280;64024;55.820;37.574;2023-08-21T11:45:46;98877.06;;;26.60;34.86
75447;BME280;64024;55.820;37.574;2023-08-21T11:48:11;98872.72;;;26.59;35.13
75447;BME280;64024;55.820;37.574;2023-08-21T11:50:38;98878.19;;;26.59;35.02
75447;BME280;64024;55.820;37.574;2023-08-21T11:53:06;98872.72;;;26.59;35.22
75447;BME280;64024;55.820;37.574;2023-08-21T11:55:34;98868.88;;;26.60;35.58
75447;BME280;64024;55.820;37.574;2023-08-21T11:58:01;98867.28;;;26.59;35.56
75447;BME280;64024;55.820;37.574;2023-08-21T12:00:31;98861.50;;;26.61;35.86
75447;BME280;64024;55.820;37.574;2023-08-21T12:02:59;98867.75;;;26.61;35.96
75447;BME280;64024;55.820;37.574;2023-08-21T12:05:27;98865.81;;;26.62;36.25
75447;BME280;64024;55.820;37.574;2023-08-21T12:07:55;98864.72;;;26.63;36.02
75447;BME280;64024;55.820;37.574;2023-08-21T12:10:25;98853.81;;;26.63;36.04
75447;BME280;64024;55.820;37.574;2023-08-21T12:12:51;98860.06;;;26.63;35.89
75447;BME280;64024;55.820;37.574;2023-08-21T12:15:17;98866.31;;;26.64;36.00
75447;BME280;64024;55.820;37.574;2023-08-21T12:17:43;98862.47;;;26.65;35.99
75447;BME280;64024;55.820;37.574;2023-08-21T12:20:09;98863.25;;;26.65;35.66
75447;BME280;64024;55.820;37.574;2023-08-21T12:22:39;98868.69;;;26.65;35.74
75447;BME280;64024;55.820;37.574;2023-08-21T12:25:09;98872.22;;;26.66;35.43
75447;BME280;64024;55.820;37.574;2023-08-21T12:27:38;98861.31;;;26.66;35.35
75447;BME280;64024;55.820;37.574;2023-08-21T12:30:05;98868.69;;;26.65;35.26
75447;BME280;64024;55.820;37.574;2023-08-21T12:32:31;98859.72;;;26.65;34.92
75447;BME280;64024;55.820;37.574;2023-08-21T12:34:57;98860.53;;;26.65;34.81
75447;BME280;64024;55.820;37.574;2023-08-21T12:37:23;98853.16;;;26.66;34.58
75447;BME280;64024;55.820;37.574;2023-08-21T12:39:50;98854.28;;;26.65;34.39
75447;BME280;64024;55.820;37.574;2023-08-21T12:42:16;98848.81;;;26.65;34.03
75447;BME280;64024;55.820;37.574;2023-08-21T12:44:42;98833.59;;;26.64;33.89
75447;BME280;64024;55.820;37.574;2023-08-21T12:47:08;98838.25;;;26.63;33.68
75447;BME280;64024;55.820;37.574;2023-08-21T12:49:33;98837.47;;;26.63;33.73
75447;BME280;64024;55.820;37.574;2023-08-21T12:52:00;98833.59;;;26.72;34.02
75447;BME280;64024;55.820;37.574;2023-08-21T12:54:26;98825.25;;;26.69;33.80
75447;BME280;64024;55.820;37.574;2023-08-21T12:56:52;98823.16;;;26.66;34.31
75447;BME280;64024;55.820;37.574;2023-08-21T12:59:19;98815.31;;;26.64;34.30
75447;BME280;64024;55.820;37.574;2023-08-21T13:01:45;98825.44;;;26.64;34.35
75447;BME280;64024;55.820;37.574;2023-08-21T13:04:10;98825.44;;;26.64;34.70